M I D A S
Marine Information and Data Acquisition System
Tripno 736 of the Zeeleeuw from 2004-06-14 06:28:19 to 2004-06-14 15:44:48
Back to CruiseResearch ActivitiesStationsMapUnderway DataData graphs

EquipmentUnitsComment
TimeDGPSUTC
LatitudeDGPSDM.mWGS84
LongitudeDGPSDM.mWGS84
HeadingGyrodeg 
SOGDGPSknotsSpeed over ground
COGDGPSdegCourse over ground
DepthEcho soundermeters200 kHz
Missing or incorrect values are displayed as -999
Navigation data collected by the RV Zeeleeuw from 2004-06-14 06:28:19 to 2004-06-14 15:44:48
Time Latitude Longitude Heading SOG COG Depth
2004-06-14 06:29:23 51°13.597 2°56.091 116.2 1.5 295 6.9
2004-06-14 06:30:25 51°13.619 2°56.016 116.6 3.6 293 -999
2004-06-14 06:31:25 51°13.647 2°55.916 119.1 4.5 296 -999
2004-06-14 06:32:25 51°13.673 2°55.8 105.3 4.2 283 -999
2004-06-14 06:33:24 51°13.682 2°55.79 52.7 0.2 339 11.5
2004-06-14 06:34:25 51°13.674 2°55.77 14.7 1.9 4 -999
2004-06-14 06:35:27 51°13.745 2°55.705 328.8 6.8 323 9.8
2004-06-14 06:36:27 51°13.866 2°55.606 345.2 8.8 339 9.4
2004-06-14 06:37:27 51°14.011 2°55.516 343.4 9.7 337 11
2004-06-14 06:38:26 51°14.158 2°55.396 334.5 10.9 328 11.2
2004-06-14 06:39:27 51°14.302 2°55.183 315.7 12.2 310 10.8
2004-06-14 06:40:27 51°14.44 2°54.922 313.6 13.5 306 10.3
2004-06-14 06:41:27 51°14.55 2°54.609 290.3 13.7 281 9.9
2004-06-14 06:42:25 51°14.507 2°54.266 248.8 13.9 243 10.7
2004-06-14 06:43:27 51°14.386 2°53.936 241.1 14 237 9.4
2004-06-14 06:44:27 51°14.261 2°53.617 242 14.3 238 9.5
2004-06-14 06:45:27 51°14.137 2°53.293 242.9 14.3 238 9.7
2004-06-14 06:46:27 51°14.01 2°52.969 242.7 14.5 238 10
2004-06-14 06:47:27 51°13.883 2°52.642 243.7 14.5 240 10.3
2004-06-14 06:48:27 51°13.755 2°52.317 243.6 14.5 237 10.4
2004-06-14 06:49:27 51°13.629 2°51.989 243.1 14.6 239 10.6
2004-06-14 06:50:27 51°13.503 2°51.66 243.3 14.5 238 10.5
2004-06-14 06:51:27 51°13.376 2°51.33 243.1 14.6 237 10.8
2004-06-14 06:52:27 51°13.25 2°51.001 243.1 14.6 239 10.9
2004-06-14 06:53:26 51°13.125 2°50.678 243.7 14.5 238 11.1
2004-06-14 06:54:27 51°12.998 2°50.344 242.4 14.5 236 11.1
2004-06-14 06:55:27 51°12.866 2°50.023 241.3 14.4 238 11.2
2004-06-14 06:56:27 51°12.734 2°49.701 241.6 14.5 238 11.1
2004-06-14 06:57:27 51°12.604 2°49.38 241 14.5 237 11.1
2004-06-14 06:58:32 51°12.469 2°49.026 246.7 14.4 242 11.2
2004-06-14 06:59:38 51°12.346 2°48.657 246.3 14.4 240 11.2
2004-06-14 07:00:38 51°12.232 2°48.322 246.2 14.4 240 11.3
2004-06-14 07:01:38 51°12.12 2°47.987 246.9 14.3 242 11.4
2004-06-14 07:02:38 51°12.03 2°47.638 252 14.3 248 11.6
2004-06-14 07:03:38 51°11.94 2°47.288 252.2 14.2 248 11.9
2004-06-14 07:04:38 51°11.851 2°46.938 252.5 14.3 249 12.1
2004-06-14 07:05:38 51°11.761 2°46.588 252.5 14.2 248 12.3
2004-06-14 07:06:38 51°11.674 2°46.236 255 14.3 252 12.4
2004-06-14 07:07:37 51°11.604 2°45.882 258.1 14.2 252 12.5
2004-06-14 07:08:38 51°11.533 2°45.514 258.2 14.3 253 12.7
2004-06-14 07:09:38 51°11.462 2°45.152 256.9 14.3 253 12.7
2004-06-14 07:10:37 51°11.392 2°44.797 257.6 14.2 252 12.8
2004-06-14 07:11:37 51°11.321 2°44.436 256.5 14.3 253 12.8
2004-06-14 07:12:38 51°11.25 2°44.069 257.6 14.3 253 12.7
2004-06-14 07:13:37 51°11.181 2°43.716 257.5 14.2 252 12.8
2004-06-14 07:14:38 51°11.111 2°43.351 257.8 14 254 12.8
2004-06-14 07:15:38 51°11.042 2°42.993 256.6 14.3 253 12.9
2004-06-14 07:16:38 51°10.973 2°42.636 258.1 13.9 252 13
2004-06-14 07:17:38 51°10.92 2°42.284 268.1 12.4 270 13
2004-06-14 07:18:38 51°11.004 2°42.091 336.4 6.9 331 13.3
2004-06-14 07:19:39 51°11.087 2°42.052 1.6 4.1 353 12.9
2004-06-14 07:20:39 51°11.113 2°42.042 352.9 0.8 335 12.9
2004-06-14 07:21:47 51°11.127 2°42.032 341.9 0.8 334 12.9
2004-06-14 07:22:47 51°11.138 2°42.021 336.9 0.8 335 12.8
2004-06-14 07:23:47 51°11.15 2°42.011 335.6 0.9 343 12.8
2004-06-14 07:24:47 51°11.161 2°42.001 333.6 0.8 330 12.8
2004-06-14 07:25:45 51°11.172 2°41.991 332.5 0.8 335 12.8
2004-06-14 07:26:47 51°11.184 2°41.981 332.8 0.8 333 12.8
2004-06-14 07:27:47 51°11.196 2°41.973 332.3 0.8 335 12.9
2004-06-14 07:28:47 51°11.209 2°41.964 332.3 0.8 337 13
2004-06-14 07:29:47 51°11.221 2°41.957 332.2 0.7 341 13
2004-06-14 07:30:47 51°11.232 2°41.95 332.6 0.8 345 13
2004-06-14 07:31:47 51°11.245 2°41.946 334.7 0.8 347 13
2004-06-14 07:32:47 51°11.258 2°41.943 337.9 0.9 359 13.1
2004-06-14 07:33:47 51°11.273 2°41.942 340.4 1.8 344 12.9
2004-06-14 07:34:46 51°11.302 2°41.807 264.2 8.2 251 12.6
2004-06-14 07:35:47 51°11.2 2°41.545 243.8 13 238 12.9
2004-06-14 07:36:47 51°11.087 2°41.242 243.8 13.4 239 13.4
2004-06-14 07:37:45 51°10.98 2°40.944 243.5 13.4 241 13.7
2004-06-14 07:38:47 51°10.87 2°40.622 247.9 13.5 247 14.1
2004-06-14 07:39:45 51°10.79 2°40.302 251.6 13.5 248 14.5
2004-06-14 07:40:47 51°10.703 2°39.961 251.8 13.5 247 15.1
2004-06-14 07:41:47 51°10.621 2°39.63 251.5 13.4 248 15.8
2004-06-14 07:42:47 51°10.549 2°39.293 254.7 13.4 250 16.4
2004-06-14 07:43:46 51°10.48 2°38.963 253.9 13.4 252 17.2
2004-06-14 07:44:45 51°10.409 2°38.63 254.7 13.5 251 17.7
2004-06-14 07:45:47 51°10.335 2°38.28 254.8 13.6 254 17.4
2004-06-14 07:46:45 51°10.266 2°37.953 254.8 13.4 252 18.3
2004-06-14 07:47:47 51°10.192 2°37.605 254.7 13.4 251 19
2004-06-14 07:48:45 51°10.123 2°37.28 254.4 13.4 251 18.8
2004-06-14 07:49:47 51°10.05 2°36.933 254.5 13.3 253 19.2
2004-06-14 07:50:46 51°9.979 2°36.604 254.2 13.3 251 19.1
2004-06-14 07:51:47 51°9.917 2°36.26 263.1 13.3 265 19.2
2004-06-14 07:52:47 51°10.017 2°35.962 318 13.5 316 19.1
2004-06-14 07:53:47 51°10.214 2°35.819 354.1 13.3 355 12.3
2004-06-14 07:54:47 51°10.428 2°35.926 27.5 13.8 24 12.4
2004-06-14 07:55:47 51°10.64 2°36.08 27.9 14.1 24 12.3
2004-06-14 07:56:47 51°10.85 2°36.248 30.8 14.1 27 13
2004-06-14 07:57:47 51°11.057 2°36.421 31.9 14.1 29 13.4
2004-06-14 07:58:47 51°11.26 2°36.608 33.7 14.2 31 13.5
2004-06-14 07:59:46 51°11.459 2°36.792 33.6 14 30 13.6
2004-06-14 08:00:47 51°11.663 2°36.987 35.1 14 32 13.6
2004-06-14 08:01:47 51°11.865 2°37.178 33.7 14.1 31 13.6
2004-06-14 08:02:47 51°12.065 2°37.369 33.6 14.1 30 13.4
2004-06-14 08:03:47 51°12.266 2°37.562 34.3 14.1 31 13.8
2004-06-14 08:04:47 51°12.468 2°37.751 34.3 14 31 13.8
2004-06-14 08:05:46 51°12.664 2°37.939 34 14 31 14.2
2004-06-14 08:06:47 51°12.868 2°38.134 34.1 14.1 31 14.9
2004-06-14 08:07:47 51°13.069 2°38.327 34.5 14.2 31 15.2
2004-06-14 08:08:47 51°13.272 2°38.525 34.1 14.3 32 15.8
2004-06-14 08:09:47 51°13.48 2°38.71 27.5 14.1 24 15.9
2004-06-14 08:10:47 51°13.7 2°38.842 23.4 14 19 16
2004-06-14 08:11:47 51°13.924 2°38.899 9.1 13.6 5 15
2004-06-14 08:12:46 51°14.139 2°38.863 347.4 13 342 12.3
2004-06-14 08:13:46 51°14.334 2°38.703 335.7 13.3 332 19
2004-06-14 08:14:46 51°14.531 2°38.539 336.2 13.4 332 18.7
2004-06-14 08:15:47 51°14.73 2°38.367 335.6 13.3 332 17.9
2004-06-14 08:16:46 51°14.925 2°38.207 336.7 13.3 334 16.9
2004-06-14 08:17:47 51°15.128 2°38.052 337.1 13.3 334 13.6
2004-06-14 08:18:46 51°15.32 2°37.893 333.4 13.2 332 12
2004-06-14 08:19:47 51°15.518 2°37.729 333.8 13.3 332 12.6
2004-06-14 08:20:47 51°15.715 2°37.568 332.7 13.3 332 11.5
2004-06-14 08:21:47 51°15.91 2°37.405 334.4 13.1 332 11.8
2004-06-14 08:22:47 51°16.107 2°37.237 334.4 13.5 332 18.4
2004-06-14 08:23:47 51°16.305 2°37.064 334.5 13.6 331 27
2004-06-14 08:24:47 51°16.49 2°36.9 331 9.7 327 28.4
2004-06-14 08:25:47 51°16.561 2°36.781 300.4 4.4 303 28.2
2004-06-14 08:26:47 51°16.588 2°36.745 323.2 1.1 22 28.2
2004-06-14 08:27:47 51°16.603 2°36.759 359.2 1.2 35 28.3
2004-06-14 08:28:47 51°16.619 2°36.779 6 1.3 38 28.2
2004-06-14 08:29:47 51°16.636 2°36.8 357.2 1.3 37 28.4
2004-06-14 08:30:46 51°16.651 2°36.819 344 1.1 40 28.5
2004-06-14 08:31:47 51°16.667 2°36.838 332.6 1.2 27 28.5
2004-06-14 08:32:47 51°16.686 2°36.85 318.4 1.1 17 28.2
2004-06-14 08:33:47 51°16.703 2°36.863 314.1 1 27 28.1
2004-06-14 08:34:47 51°16.719 2°36.877 312.1 1 30 28.3
2004-06-14 08:35:47 51°16.734 2°36.893 310.8 1.1 35 28.6
2004-06-14 08:36:47 51°16.749 2°36.91 311.3 1.1 38 28.5
2004-06-14 08:37:47 51°16.764 2°36.93 312.9 1.1 41 28.7
2004-06-14 08:38:50 51°16.784 2°36.914 275 1.7 290 28.6
2004-06-14 08:39:50 51°16.759 2°36.876 208.1 3 194 28.7
2004-06-14 08:40:50 51°16.715 2°36.854 214.9 3.4 202 28.4
2004-06-14 08:41:50 51°16.646 2°36.803 221.2 4.2 211 28.7
2004-06-14 08:42:50 51°16.62 2°36.771 225.6 0.4 160 28.4
2004-06-14 08:43:50 51°16.615 2°36.783 203.2 0.7 113 28.5
2004-06-14 08:44:50 51°16.611 2°36.804 191.1 0.9 108 28.4
2004-06-14 08:45:50 51°16.606 2°36.828 189.3 0.9 102 28.5
2004-06-14 08:46:50 51°16.601 2°36.852 192.3 1.3 138 28.4
2004-06-14 08:47:55 51°16.555 2°36.812 240.8 4 248 28.5
2004-06-14 08:48:55 51°16.584 2°36.693 304.1 6.1 308 28.7
2004-06-14 08:49:54 51°16.651 2°36.558 302.1 6.9 306 28.4
2004-06-14 08:50:55 51°16.719 2°36.401 304.8 7.2 307 28.6
2004-06-14 08:51:54 51°16.82 2°36.191 308.1 13 306 28.8
2004-06-14 08:52:55 51°16.973 2°35.926 321.7 13.6 323 25.3
2004-06-14 08:53:55 51°17.158 2°35.724 325.6 13.2 324 18.4
2004-06-14 08:54:54 51°17.332 2°35.528 325.1 13 324 13.9
2004-06-14 08:55:54 51°17.506 2°35.326 318.5 12.7 317 14.1
2004-06-14 08:56:54 51°17.63 2°35.057 303 12.7 302 16.7
2004-06-14 08:57:54 51°17.746 2°34.777 303.2 12.3 303 19.9
2004-06-14 08:58:54 51°17.863 2°34.488 303.7 13.1 303 27.4
2004-06-14 08:59:55 51°17.994 2°34.201 308.6 13.3 309 30.3
2004-06-14 09:00:54 51°18.129 2°33.932 308.8 13.2 309 24.9
2004-06-14 09:01:55 51°18.268 2°33.655 308.4 13.1 309 23.8
2004-06-14 09:02:55 51°18.402 2°33.384 308 13 307 20.5
2004-06-14 09:03:54 51°18.532 2°33.113 308.2 13.2 306 25.7
2004-06-14 09:04:55 51°18.67 2°32.83 308.3 13.3 307 30
2004-06-14 09:05:55 51°18.806 2°32.549 308.3 13.3 308 31.2
2004-06-14 09:06:55 51°18.943 2°32.268 308.1 13.4 308 33
2004-06-14 09:07:55 51°19.08 2°31.985 308.1 13.4 308 32.4
2004-06-14 09:09:03 51°19.235 2°31.668 308.2 13.3 308 32.6
2004-06-14 09:10:03 51°19.37 2°31.387 308.4 13.3 308 32
2004-06-14 09:11:02 51°19.504 2°31.113 308.4 13.4 309 31.2
2004-06-14 09:12:08 51°19.651 2°30.813 308 12.9 308 24.1
2004-06-14 09:13:07 51°19.78 2°30.55 308.6 12.7 310 19.3
2004-06-14 09:14:14 51°19.916 2°30.257 303.1 11.3 301 14.7
2004-06-14 09:15:14 51°19.983 2°30.114 292.8 4.1 301 15.9
2004-06-14 09:16:14 51°19.989 2°30.038 261.2 2.9 261 16.6
2004-06-14 09:17:14 51°19.983 2°29.984 264.6 0.7 295 15.4
2004-06-14 09:18:14 51°19.991 2°29.996 271 0.8 39 16.3
2004-06-14 09:19:14 51°20.001 2°30.012 279.6 1 45 16.4
2004-06-14 09:20:14 51°20.014 2°30.035 283.7 1.3 54 16.5
2004-06-14 09:21:14 51°20.028 2°30.069 288.7 1.6 57 12.4
2004-06-14 09:22:14 51°20.042 2°30.106 297.3 1.5 59 15.6
2004-06-14 09:23:14 51°20.057 2°30.143 302.7 1.6 59 15.7
2004-06-14 09:24:14 51°20.073 2°30.18 307 1.7 57 15.5
2004-06-14 09:25:14 51°20.09 2°30.21 293.5 1.4 43 16.9
2004-06-14 09:26:14 51°20.087 2°30.202 234.2 1.9 206 16.9
2004-06-14 09:27:14 51°20.025 2°30.276 143.4 8.4 127 15.1
2004-06-14 09:28:14 51°19.869 2°30.515 147.9 14.3 139 18
2004-06-14 09:29:14 51°19.695 2°30.774 140.8 14.6 131 22.7
2004-06-14 09:30:14 51°19.564 2°31.097 130.2 14.5 121 30.6
2004-06-14 09:31:14 51°19.438 2°31.422 130.1 14.2 122 32.5
2004-06-14 09:32:14 51°19.314 2°31.739 131 14 124 32.5
2004-06-14 09:33:14 51°19.19 2°32.055 131.3 13.8 123 33
2004-06-14 09:34:14 51°19.055 2°32.358 134.3 14 124 32.5
2004-06-14 09:35:14 51°18.92 2°32.659 135.7 14.2 125 32.2
2004-06-14 09:36:14 51°18.787 2°32.96 135 13.7 127 29.2
2004-06-14 09:37:14 51°18.653 2°33.264 133.5 14 125 26.2
2004-06-14 09:38:14 51°18.519 2°33.569 133.5 13.9 127 18
2004-06-14 09:39:14 51°18.385 2°33.881 133.6 14 125 22.8
2004-06-14 09:40:14 51°18.25 2°34.193 133.8 14.2 125 28
2004-06-14 09:41:14 51°18.116 2°34.505 134.2 14.2 126 29.9
2004-06-14 09:42:14 51°17.982 2°34.816 134 14.2 122 27.8
2004-06-14 09:43:14 51°17.844 2°35.126 134.6 14.3 126 21.7
2004-06-14 09:44:14 51°17.705 2°35.438 134.3 14.6 126 18.8
2004-06-14 09:45:14 51°17.562 2°35.748 134.2 14.5 127 13.4
2004-06-14 09:46:14 51°17.421 2°36.057 133.5 14.6 126 18.4
2004-06-14 09:47:14 51°17.284 2°36.365 133.5 14 124 25.9
2004-06-14 09:48:14 51°17.154 2°36.672 134.2 13.9 125 29.3
2004-06-14 09:49:14 51°17.023 2°36.974 134 14 124 29.4
2004-06-14 09:50:14 51°16.889 2°37.286 133.5 14.2 126 30.3
2004-06-14 09:51:14 51°16.739 2°37.571 140.7 14.1 129 28.8
2004-06-14 09:52:14 51°16.587 2°37.853 140.1 13.9 131 22.8
2004-06-14 09:53:14 51°16.436 2°38.135 139.3 14 130 10.6
2004-06-14 09:54:14 51°16.278 2°38.419 141.4 14.4 132 11.7
2004-06-14 09:55:14 51°16.117 2°38.706 139.2 14.4 131 14.4
2004-06-14 09:56:14 51°15.96 2°38.993 138.2 14.6 130 18.4
2004-06-14 09:57:14 51°15.811 2°39.285 136.3 14.1 128 21.4
2004-06-14 09:58:14 51°15.663 2°39.574 137.3 13.9 128 22
2004-06-14 09:59:14 51°15.515 2°39.859 136.2 13.9 129 20.8
2004-06-14 10:00:14 51°15.371 2°40.149 134.7 13.7 127 18.3
2004-06-14 10:01:14 51°15.227 2°40.44 136.9 14 129 14.8
2004-06-14 10:02:14 51°15.082 2°40.737 133.9 14.4 126 14.6
2004-06-14 10:03:14 51°14.942 2°41.044 133.8 14.5 125 15.1
2004-06-14 10:04:14 51°14.805 2°41.358 131.2 14.4 124 15.8
2004-06-14 10:05:14 51°14.673 2°41.68 127.5 14.7 119 16
2004-06-14 10:06:14 51°14.571 2°42.028 114.6 14.8 104 16.8
2004-06-14 10:07:14 51°14.585 2°42.417 83.6 15.1 79 18.9
2004-06-14 10:08:14 51°14.634 2°42.812 83.8 15.2 78 19.9
2004-06-14 10:09:14 51°14.684 2°43.208 84.8 15.4 79 20.4
2004-06-14 10:10:14 51°14.729 2°43.605 85 15.2 79 20.1
2004-06-14 10:11:14 51°14.777 2°44.003 85.6 15.3 80 19.2
2004-06-14 10:12:14 51°14.83 2°44.401 81.2 15.4 75 18.8
2004-06-14 10:13:14 51°14.894 2°44.799 80.7 15.6 76 18.2
2004-06-14 10:14:14 51°14.956 2°45.194 81.2 15.3 76 17.3
2004-06-14 10:15:14 51°15.016 2°45.588 81.2 15.3 76 16.5
2004-06-14 10:16:12 51°15.073 2°45.968 81 15.2 76 15.4
2004-06-14 10:17:14 51°15.133 2°46.373 80.7 15.1 77 14.5
2004-06-14 10:18:14 51°15.19 2°46.766 81.3 15.3 76 13.5
2004-06-14 10:19:14 51°15.245 2°47.158 81.5 15.2 78 12.8
2004-06-14 10:20:14 51°15.3 2°47.55 81.2 15.2 78 12.5
2004-06-14 10:21:14 51°15.357 2°47.939 81.3 15 75 12.5
2004-06-14 10:22:14 51°15.41 2°48.323 81 14.8 77 12.7
2004-06-14 10:23:14 51°15.462 2°48.706 81.6 14.9 77 13.4
2004-06-14 10:24:14 51°15.517 2°49.086 81.1 14.8 77 14.6
2004-06-14 10:25:14 51°15.572 2°49.47 81 14.9 76 15.3
2004-06-14 10:26:14 51°15.63 2°49.856 81.4 15 77 15.4
2004-06-14 10:27:14 51°15.688 2°50.246 81 15.1 77 15.5
2004-06-14 10:28:14 51°15.744 2°50.604 80.7 10.9 76 15.5
2004-06-14 10:29:14 51°15.756 2°50.82 105.6 6.8 93 15.6
2004-06-14 10:30:14 51°15.739 2°50.965 126 4.9 105 15.6
2004-06-14 10:31:14 51°15.712 2°51.078 140.9 4.5 118 15.7
2004-06-14 10:32:14 51°15.676 2°51.186 141.6 4.7 118 15.6
2004-06-14 10:33:14 51°15.636 2°51.296 141.9 4.8 122 15.5
2004-06-14 10:34:14 51°15.615 2°51.482 88 10.5 77 15.3
2004-06-14 10:35:14 51°15.691 2°51.83 76.3 15.2 70 15.1
2004-06-14 10:36:14 51°15.775 2°52.216 76.2 15.4 71 14.9
2004-06-14 10:37:14 51°15.858 2°52.603 77 15.4 71 14.7
2004-06-14 10:38:14 51°15.927 2°52.994 83.9 15.2 79 14.5
2004-06-14 10:39:14 51°15.981 2°53.389 83.4 15.1 78 14.2
2004-06-14 10:40:14 51°16.036 2°53.781 84.1 15.2 77 13.9
2004-06-14 10:41:14 51°16.092 2°54.152 76.9 12.5 70 13.9
2004-06-14 10:42:14 51°16.17 2°54.352 38.4 6.7 40 13.9
2004-06-14 10:43:14 51°16.251 2°54.363 316 4.4 326 14.1
2004-06-14 10:44:14 51°16.259 2°54.295 254.7 1.3 269 14.2
2004-06-14 10:45:14 51°16.27 2°54.3 288.3 1 30 14.4
2004-06-14 10:46:14 51°16.287 2°54.318 306.6 1.3 33 14.2
2004-06-14 10:47:14 51°16.308 2°54.339 319.8 1.7 27 14.1
2004-06-14 10:48:14 51°16.336 2°54.36 337.7 1.9 31 14.2
2004-06-14 10:49:14 51°16.362 2°54.388 338.2 1.9 37 14.1
2004-06-14 10:50:13 51°16.387 2°54.418 337.1 1.9 38 14
2004-06-14 10:51:14 51°16.421 2°54.433 323.5 3.6 340 13.6
2004-06-14 10:52:26 51°16.432 2°54.298 241.3 6 227 14.2
2004-06-14 10:53:30 51°16.302 2°54.276 185.5 9.2 175 14.1
2004-06-14 10:54:31 51°16.176 2°54.265 181.7 5.7 156 14.1
2004-06-14 10:55:30 51°16.115 2°54.396 127.3 7.2 111 13.9
2004-06-14 10:56:31 51°16.125 2°54.598 70.3 7.5 60 13.6
2004-06-14 10:57:34 51°16.201 2°54.7 28.1 4.9 33 13.6
2004-06-14 10:58:34 51°16.264 2°54.764 22.3 4.2 32 13.5
2004-06-14 10:59:34 51°16.318 2°54.825 26.5 3.8 37 13.3
2004-06-14 11:00:34 51°16.366 2°54.886 28.9 3.6 40 13.2
2004-06-14 11:01:34 51°16.411 2°54.945 25.7 3.4 40 13
2004-06-14 11:02:36 51°16.455 2°55.003 26.8 3.3 40 13.2
2004-06-14 11:03:36 51°16.495 2°55.061 36.2 3.3 45 13.4
2004-06-14 11:04:36 51°16.533 2°55.123 37.9 3.3 47 13.5
2004-06-14 11:05:36 51°16.571 2°55.182 31.2 3.1 42 13.4
2004-06-14 11:06:36 51°16.609 2°55.237 28.2 3.1 43 13.3
2004-06-14 11:07:36 51°16.647 2°55.292 27.8 3 41 13.4
2004-06-14 11:08:36 51°16.683 2°55.348 29.5 3.1 43 13.4
2004-06-14 11:09:36 51°16.721 2°55.401 25.3 2.9 39 13.3
2004-06-14 11:10:35 51°16.757 2°55.454 28.8 3 43 13.3
2004-06-14 11:11:36 51°16.795 2°55.511 29.3 3.2 45 13.3
2004-06-14 11:12:36 51°16.83 2°55.566 29.1 2.9 45 13.3
2004-06-14 11:13:34 51°16.867 2°55.692 101.7 7.1 96 13.1
2004-06-14 11:14:36 51°16.789 2°55.775 206.1 5.3 202 12.9
2004-06-14 11:15:36 51°16.71 2°55.602 234.7 11.2 227 12.8
2004-06-14 11:16:36 51°16.599 2°55.342 243.1 12.2 236 12.9
2004-06-14 11:17:36 51°16.491 2°55.069 242.4 12.1 239 13.1
2004-06-14 11:18:36 51°16.392 2°54.784 244.3 12.3 240 12.3
2004-06-14 11:19:36 51°16.293 2°54.504 249.1 11.2 245 13.5
2004-06-14 11:20:36 51°16.246 2°54.339 251.8 4.5 248 13.9
2004-06-14 11:21:36 51°16.246 2°54.308 283.1 0.7 335 14
2004-06-14 11:22:37 51°16.262 2°54.308 299 1.1 10 14
2004-06-14 11:23:38 51°16.281 2°54.316 310.2 1.3 20 14
2004-06-14 11:24:38 51°16.301 2°54.331 316.5 1.3 25 13.9
2004-06-14 11:25:38 51°16.32 2°54.349 317.7 1.3 31 13.9
2004-06-14 11:26:42 51°16.34 2°54.369 318.6 1.4 37 13.8
2004-06-14 11:27:41 51°16.358 2°54.39 320.9 1.3 35 13.9
2004-06-14 11:28:40 51°16.375 2°54.412 325.9 1.5 42 13.8
2004-06-14 11:29:41 51°16.393 2°54.436 330.9 1.4 40 13.4
2004-06-14 11:30:42 51°16.412 2°54.462 336.5 1.5 44 13.4
2004-06-14 11:31:40 51°16.43 2°54.487 338.8 1.6 43 13.4
2004-06-14 11:32:45 51°16.472 2°54.494 335.1 4.3 346 13.3
2004-06-14 11:33:44 51°16.57 2°54.365 306.8 10.2 307 13.8
2004-06-14 11:34:46 51°16.659 2°54.111 297.1 10.7 298 14.1
2004-06-14 11:35:44 51°16.742 2°53.87 297.5 10.7 298 13.8
2004-06-14 11:36:44 51°16.836 2°53.625 303.6 10.9 305 13.1
2004-06-14 11:37:44 51°16.936 2°53.385 302.7 10.8 305 10.6
2004-06-14 11:38:44 51°17.036 2°53.145 302 11 303 10.3
2004-06-14 11:39:44 51°17.137 2°52.903 301.2 10.8 303 11.4
2004-06-14 11:40:46 51°17.233 2°52.652 302.7 10.8 305 11.9
2004-06-14 11:41:44 51°17.338 2°52.432 305.3 10.8 306 12.4
2004-06-14 11:42:46 51°17.45 2°52.196 305.5 10.8 307 12.5
2004-06-14 11:43:44 51°17.564 2°51.985 314.4 11 316 12.6
2004-06-14 11:44:45 51°17.697 2°51.779 313.5 11 315 12.2
2004-06-14 11:45:44 51°17.824 2°51.577 314 11 315 12.2
2004-06-14 11:46:45 51°17.954 2°51.365 313.3 11 315 12.9
2004-06-14 11:47:44 51°18.079 2°51.16 313.7 10.9 314 13.9
2004-06-14 11:48:45 51°18.208 2°50.947 311 11 312 15
2004-06-14 11:49:44 51°18.314 2°50.82 300.7 5.2 307 15.6
2004-06-14 11:50:45 51°18.339 2°50.779 273.6 0.9 340 15.7
2004-06-14 11:51:46 51°18.348 2°50.781 255.4 0.5 20 15.7
2004-06-14 11:52:44 51°18.354 2°50.787 241.1 0.4 58 15.6
2004-06-14 11:53:45 51°18.359 2°50.797 228.6 0.5 70 15.7
2004-06-14 11:54:46 51°18.361 2°50.812 220.5 0.6 66 15.7
2004-06-14 11:55:43 51°18.364 2°50.828 219.1 0.8 84 15.7
2004-06-14 11:56:46 51°18.367 2°50.846 220.5 0.6 69 15.7
2004-06-14 11:57:46 51°18.372 2°50.864 223.7 0.7 68 15.7
2004-06-14 11:58:46 51°18.371 2°50.867 242.1 1.2 243 15.5
2004-06-14 11:59:42 51°18.389 2°50.815 309.9 3.2 325 15.6
2004-06-14 12:00:45 51°18.434 2°50.778 315.7 2.6 332 15.9
2004-06-14 12:01:46 51°18.471 2°50.747 312.6 2.4 330 15.9
2004-06-14 12:02:45 51°18.504 2°50.717 313.3 2.3 334 15.9
2004-06-14 12:03:43 51°18.537 2°50.693 317.7 2.3 338 16.2
2004-06-14 12:04:46 51°18.575 2°50.675 324.9 2.3 350 16.3
2004-06-14 12:05:45 51°18.612 2°50.664 325.8 2.3 351 16.3
2004-06-14 12:06:46 51°18.65 2°50.656 325.9 2.2 353 16.3
2004-06-14 12:07:43 51°18.685 2°50.649 323 2.2 354 16.2
2004-06-14 12:08:44 51°18.722 2°50.643 324 2.3 357 16.3
2004-06-14 12:09:45 51°18.759 2°50.638 320.5 2.1 355 16.4
2004-06-14 12:10:46 51°18.794 2°50.629 314.5 2 347 16.4
2004-06-14 12:11:45 51°18.825 2°50.618 310.3 1.8 345 16.2
2004-06-14 12:12:46 51°18.853 2°50.607 308.1 1.4 348 16.5
2004-06-14 12:13:45 51°18.873 2°50.612 308.8 1.3 15 16.4
2004-06-14 12:14:45 51°18.893 2°50.619 308.4 1.2 14 16.4
2004-06-14 12:15:45 51°18.937 2°50.583 320.4 6.8 326 16.1
2004-06-14 12:16:46 51°19.116 2°50.478 346.2 13.5 343 15.1
2004-06-14 12:17:45 51°19.331 2°50.36 343.7 14.1 341 13.2
2004-06-14 12:18:45 51°19.556 2°50.259 349.1 14.1 347 13.8
2004-06-14 12:19:45 51°19.785 2°50.168 348.5 14.2 346 15.8
2004-06-14 12:20:46 51°20.018 2°50.078 348.9 14.2 347 17.5
2004-06-14 12:21:45 51°20.243 2°49.99 348.4 14.1 345 20
2004-06-14 12:22:45 51°20.475 2°49.909 349.1 14.4 348 22.9
2004-06-14 12:23:46 51°20.716 2°49.83 349.1 14.5 349 24.3
2004-06-14 12:24:43 51°20.935 2°49.746 349.7 14.3 347 25
2004-06-14 12:25:45 51°21.175 2°49.66 349.7 14.4 347 23.7
2004-06-14 12:26:50 51°21.428 2°49.568 349 14.2 347 22.8
2004-06-14 12:27:50 51°21.659 2°49.484 349.2 14.2 347 24.1
2004-06-14 12:28:50 51°21.889 2°49.406 349.3 14.1 349 24.6
2004-06-14 12:29:55 51°22.137 2°49.324 348.4 14 347 24.5
2004-06-14 12:30:54 51°22.362 2°49.244 349.3 14.2 348 24
2004-06-14 12:32:03 51°22.629 2°49.157 351.4 14.3 351 15.7
2004-06-14 12:33:08 51°22.886 2°49.097 353.8 14.4 353 17.6
2004-06-14 12:34:08 51°23.125 2°49.043 353.6 14.5 351 21.1
2004-06-14 12:35:13 51°23.383 2°48.982 353 14.4 351 21
2004-06-14 12:36:12 51°23.616 2°48.926 352.8 14.4 351 22.9
2004-06-14 12:37:13 51°23.855 2°48.867 353.3 14.4 351 24.5
2004-06-14 12:38:13 51°24.092 2°48.807 353.4 14.4 351 23.6
2004-06-14 12:39:14 51°24.336 2°48.786 4.3 14.6 1 22.7
2004-06-14 12:40:13 51°24.575 2°48.797 4.6 14.6 1 23.2
2004-06-14 12:41:14 51°24.82 2°48.801 3.6 14.4   23.7
2004-06-14 12:42:12 51°25.052 2°48.804 3.8 14.4   26
2004-06-14 12:43:14 51°25.3 2°48.808 3.6 14.5 1 27.3
2004-06-14 12:44:13 51°25.537 2°48.797 357.9 14.4 355 25.8
2004-06-14 12:45:14 51°25.782 2°48.765 357.7 14.5 355 24.8
2004-06-14 12:46:13 51°25.985 2°48.704 346.9 9.8 347 25
2004-06-14 12:47:13 51°26.068 2°48.602 278.3 4.9 280 24
2004-06-14 12:48:14 51°26.028 2°48.525 215.8 4.2 210 24.3
2004-06-14 12:49:13 51°25.986 2°48.498 205 1.3 187 24.7
2004-06-14 12:50:12 51°25.977 2°48.508 197 0.8 134 24.6
2004-06-14 12:51:13 51°25.97 2°48.524 201.4 0.6 115 24.7
2004-06-14 12:52:14 51°25.968 2°48.537 212.5 0.5 97 24.9
2004-06-14 12:53:12 51°25.97 2°48.547 221.9 0.4 60 24.7
2004-06-14 12:54:13 51°25.973 2°48.557 230.2 0.4 48 25.2
2004-06-14 12:55:14 51°25.979 2°48.567 238.2 0.5 49 25.1
2004-06-14 12:56:18 51°25.986 2°48.578 247.9 0.6 52 25.1
2004-06-14 12:57:18 51°25.994 2°48.587 257.4 0.6 31 25.1
2004-06-14 12:58:18 51°26.005 2°48.597 269.1 0.7 31 25.1
2004-06-14 12:59:18 51°26.029 2°48.575 316.4 3.5 336 24.7
2004-06-14 13:00:19 51°26.103 2°48.602 41.3 5.3 44 24.7
2004-06-14 13:01:18 51°26.166 2°48.791 73.4 12.8 67 24.9
2004-06-14 13:02:18 51°26.253 2°49.141 79.2 14.5 74 24.2
2004-06-14 13:03:18 51°26.289 2°49.519 89.2 14.5 82 24
2004-06-14 13:04:18 51°26.325 2°49.901 89.2 14.6 81 24.1
2004-06-14 13:05:18 51°26.361 2°50.284 89.3 14.6 81 24.3
2004-06-14 13:06:19 51°26.4 2°50.676 88 14.6 81 24.5
2004-06-14 13:07:19 51°26.437 2°51.06 88.7 14.4 82 24.9
2004-06-14 13:08:19 51°26.474 2°51.442 88.5 14.6 81 27.4
2004-06-14 13:09:18 51°26.508 2°51.818 88.7 14.5 82 27
2004-06-14 13:10:19 51°26.546 2°52.203 88.4 14.3 81 26.7
2004-06-14 13:11:19 51°26.581 2°52.575 88.4 14.1 82 28.3
2004-06-14 13:12:18 51°26.613 2°52.941 88.1 14.2 83 29.9
2004-06-14 13:13:22 51°26.652 2°53.34 88.8 14.1 82 31.9
2004-06-14 13:14:21 51°26.7 2°53.706 78.9 14.3 72 31.8
2004-06-14 13:15:21 51°26.783 2°54.066 78.4 14.5 72 29.7
2004-06-14 13:16:23 51°26.862 2°54.445 79.3 14.6 73 25
2004-06-14 13:17:28 51°26.944 2°54.845 79.1 14.6 72 28
2004-06-14 13:18:28 51°27.018 2°55.216 79 14.4 73 28
2004-06-14 13:19:27 51°27.089 2°55.578 79.3 14.5 72 29.9
2004-06-14 13:20:28 51°27.162 2°55.953 79.3 14.5 74 27.7
2004-06-14 13:21:28 51°27.235 2°56.322 78.8 14.4 72 27.6
2004-06-14 13:22:28 51°27.307 2°56.691 79.6 14.4 72 22
2004-06-14 13:23:27 51°27.376 2°57.051 79.8 14.4 72 26.9
2004-06-14 13:24:28 51°27.445 2°57.423 81.7 14.3 76 26.8
2004-06-14 13:25:27 51°27.504 2°57.785 82.5 14.1 76 24.7
2004-06-14 13:26:27 51°27.561 2°58.149 82.2 14.1 75 21.3
2004-06-14 13:27:27 51°27.62 2°58.511 82.2 14.2 75 20.4
2004-06-14 13:28:27 51°27.68 2°58.877 83.3 14.3 75 19.5
2004-06-14 13:29:27 51°27.741 2°59.242 82.4 14.3 75 18.3
2004-06-14 13:30:27 51°27.802 2°59.608 82.6 14.3 75 19.6
2004-06-14 13:31:27 51°27.862 2°59.977 82.7 14.3 76 19.2
2004-06-14 13:32:28 51°27.924 3°0.354 83.2 14.4 76 21.8
2004-06-14 13:33:27 51°27.984 3°0.718 82.4 14.4 76 22
2004-06-14 13:34:27 51°28.047 3°1.089 81.4 14.6 74 22.9
2004-06-14 13:35:28 51°28.115 3°1.471 82.2 14.7 75 23.9
2004-06-14 13:36:28 51°28.179 3°1.848 82.3 14.6 75 24.3
2004-06-14 13:37:27 51°28.241 3°2.218 82.5 14.6 76 24.3
2004-06-14 13:38:27 51°28.3 3°2.592 82.3 14.5 76 24.8
2004-06-14 13:39:28 51°28.359 3°2.969 82.1 14.4 77 24.7
2004-06-14 13:40:27 51°28.41 3°3.322 84.9 11.7 80 23.9
2004-06-14 13:41:27 51°28.391 3°3.529 137.6 5.9 142 23.7
2004-06-14 13:42:28 51°28.313 3°3.506 220.1 4.8 221 23.1
2004-06-14 13:43:27 51°28.273 3°3.449 230.8 1.4 236 23.4
2004-06-14 13:44:27 51°28.271 3°3.435 249.5 0.5 273 23.2
2004-06-14 13:45:27 51°28.273 3°3.424 257.6 0.4 289 23.4
2004-06-14 13:46:27 51°28.277 3°3.413 264.8 0.5 316 23.4
2004-06-14 13:47:26 51°28.284 3°3.404 272 0.5 330 23.3
2004-06-14 13:48:31 51°28.294 3°3.397 284.6 0.7 343 23.5
2004-06-14 13:49:31 51°28.323 3°3.357 327.3 4.6 335 23.7
2004-06-14 13:50:31 51°28.394 3°3.421 75.4 6.3 79 23.5
2004-06-14 13:51:31 51°28.319 3°3.627 132.1 12.4 127 22.6
2004-06-14 13:52:31 51°28.188 3°3.908 131.2 13.3 127 20.7
2004-06-14 13:53:31 51°28.052 3°4.191 132.4 13.6 126 18.7
2004-06-14 13:54:31 51°27.917 3°4.475 131.5 13.8 126 16.8
2004-06-14 13:55:31 51°27.785 3°4.756 131.6 13.4 127 13.8
2004-06-14 13:56:31 51°27.653 3°5.037 133 13.7 128 14.7
2004-06-14 13:57:31 51°27.519 3°5.317 133.8 13.4 132 14.9
2004-06-14 13:58:31 51°27.351 3°5.537 151.6 13.4 149 14.5
2004-06-14 13:59:31 51°27.166 3°5.72 151.2 12.8 147 13.6
2004-06-14 14:00:31 51°26.984 3°5.908 151.9 12.6 148 12.3
2004-06-14 14:01:31 51°26.803 3°6.097 150.2 12.9 148 11.8
2004-06-14 14:02:31 51°26.622 3°6.286 152.5 12.9 148 11.9
2004-06-14 14:03:31 51°26.442 3°6.48 149.4 13.2 145 11.7
2004-06-14 14:04:31 51°26.261 3°6.675 149.1 12.6 145 10.7
2004-06-14 14:05:31 51°26.08 3°6.868 151.3 12.9 147 11.1
2004-06-14 14:06:31 51°25.9 3°7.058 150.9 13.1 147 10.4
2004-06-14 14:07:31 51°25.723 3°7.25 151.8 12.8 147 10.2
2004-06-14 14:08:31 51°25.543 3°7.438 150.8 12.7 147 9.8
2004-06-14 14:09:31 51°25.365 3°7.621 150.5 12.5 148 9
2004-06-14 14:10:31 51°25.186 3°7.796 148.7 12.5 145 8.3
2004-06-14 14:11:31 51°25.01 3°7.964 153.8 12.2 150 8.3
2004-06-14 14:12:31 51°24.832 3°8.143 152.3 12.6 154 9.5
2004-06-14 14:13:31 51°24.622 3°8.144 200.5 13.3 213 10.5
2004-06-14 14:14:31 51°24.47 3°7.876 228.4 13.8 229 11.5
2004-06-14 14:15:31 51°24.303 3°7.626 210.4 13.7 208 13.4
2004-06-14 14:16:31 51°24.088 3°7.588 170.9 13.3 168 18.7
2004-06-14 14:17:31 51°23.894 3°7.74 144.9 13.2 143 18.5
2004-06-14 14:18:31 51°23.733 3°7.976 135.7 13.2 130 18.2
2004-06-14 14:19:31 51°23.608 3°8.262 124.5 13 122 17.7
2004-06-14 14:20:31 51°23.504 3°8.57 121 13.2 118 18.7
2004-06-14 14:21:31 51°23.4 3°8.876 122 13.2 119 18.8
2004-06-14 14:22:31 51°23.294 3°9.183 122.9 13.2 120 18.7
2004-06-14 14:23:31 51°23.184 3°9.484 123.4 13.2 121 15.3
2004-06-14 14:24:31 51°23.07 3°9.784 123.1 13.3 121 14.7
2004-06-14 14:25:31 51°22.957 3°10.084 122.9 13.3 122 13.9
2004-06-14 14:26:31 51°22.844 3°10.383 123.7 13.2 120 13.9
2004-06-14 14:27:31 51°22.751 3°10.7 115.4 13.3 112 14.2
2004-06-14 14:28:31 51°22.685 3°11.035 107.7 13.1 105 14.4
2004-06-14 14:29:31 51°22.639 3°11.374 104.7 12.8 101 14.5
2004-06-14 14:30:31 51°22.614 3°11.713 96.7 12.8 91 14.5
2004-06-14 14:31:31 51°22.623 3°12.048 89.2 12.5 85 14
2004-06-14 14:32:31 51°22.626 3°12.379 97.2 12.5 92 13.8
2004-06-14 14:33:31 51°22.619 3°12.704 96.5 12.2 91 13.3
2004-06-14 14:34:31 51°22.595 3°12.999 102.8 8.1 102 12.7
2004-06-14 14:35:31 51°22.58 3°13.136 85.5 3.8 75 12.5
2004-06-14 14:36:31 51°22.605 3°13.177 52.3 1.1 330 12.6
2004-06-14 14:37:31 51°22.619 3°13.159 29 1.2 316 12.6
2004-06-14 14:38:31 51°22.633 3°13.133 19.3 1.3 307 12.3
2004-06-14 14:39:31 51°22.646 3°13.103 12.3 1.3 304 12.5
2004-06-14 14:40:31 51°22.658 3°13.071 6.5 1.4 298 12.5
2004-06-14 14:41:31 51°22.669 3°13.037 0.5 1.5 295 12.7
2004-06-14 14:42:31 51°22.694 3°12.989 340.5 3.1 311 12.5
2004-06-14 14:43:31 51°22.722 3°12.864 278.6 6.9 267 12.6
2004-06-14 14:44:31 51°22.67 3°12.624 248.9 13 247 13.4
2004-06-14 14:45:31 51°22.581 3°12.263 249.5 15.2 250 13.6
2004-06-14 14:46:31 51°22.499 3°11.878 253.3 15.3 250 14.5
2004-06-14 14:47:31 51°22.414 3°11.497 252.5 15.1 251 14.9
2004-06-14 14:48:31 51°22.34 3°11.113 259.1 15.1 255 15.1
2004-06-14 14:49:32 51°22.273 3°10.719 258.7 15 255 18.4
2004-06-14 14:50:31 51°22.206 3°10.343 258.6 14.9 252 14.2
2004-06-14 14:51:31 51°22.074 3°10.006 236.5 15.2 235 13.5
2004-06-14 14:52:32 51°21.927 3°9.666 236.9 15.4 235 12.3
2004-06-14 14:53:32 51°21.783 3°9.328 237.8 15.4 236 11.2
2004-06-14 14:54:31 51°21.645 3°8.988 237.9 15.5 238 10
2004-06-14 14:55:31 51°21.504 3°8.648 237.9 15.3 237 9
2004-06-14 14:56:31 51°21.366 3°8.313 240.2 14.8 238 8.4
2004-06-14 14:57:31 51°21.227 3°7.993 232.4 14.4 231 7.8
2004-06-14 14:58:31 51°21.098 3°7.675 248 14.2 244 5.6
2004-06-14 14:59:32 51°20.964 3°7.367 224.5 13.9 223 7.3
2004-06-14 15:00:32 51°20.78 3°7.15 217 13.8 220 7.1
2004-06-14 15:01:31 51°20.599 3°6.936 215.2 14 215 7.1
2004-06-14 15:02:32 51°20.4 3°6.748 210.2 13.7 210 7
2004-06-14 15:03:32 51°20.192 3°6.6 202.4 14.1 205 7.3
2004-06-14 15:04:32 51°20 3°6.405 210.7 13.5 210 7.1
2004-06-14 15:05:32 51°19.816 3°6.194 228.5 13.5 229 6.9
2004-06-14 15:06:32 51°19.679 3°5.895 235.6 14 232 7.1
2004-06-14 15:07:32 51°19.536 3°5.601 238.7 14.1 237 7.2
2004-06-14 15:08:32 51°19.393 3°5.307 224.1 13.9 221 7.2
2004-06-14 15:09:32 51°19.245 3°5.021 244.4 14.1 240 7.4
2004-06-14 15:10:32 51°19.126 3°4.693 240.7 14.3 238 7.5
2004-06-14 15:11:32 51°19.002 3°4.367 243.8 14.3 240 5.6
2004-06-14 15:12:32 51°18.847 3°4.077 225.7 14.6 225 7.7
2004-06-14 15:13:32 51°18.72 3°3.753 245.6 14.5 241 7.6
2004-06-14 15:14:32 51°18.57 3°3.454 229.3 14.4 228 7.8
2004-06-14 15:15:32 51°18.447 3°3.123 247.1 14.5 242 7.8
2004-06-14 15:16:32 51°18.307 3°2.81 236.8 14.5 235 7.9
2004-06-14 15:17:32 51°18.201 3°2.462 243.5 14.5 238 8
2004-06-14 15:18:31 51°18.08 3°2.137 252.2 14.6 249 8.2
2004-06-14 15:19:31 51°17.99 3°1.778 245.7 14.6 241 8.2
2004-06-14 15:20:31 51°17.886 3°1.43 255.4 14.3 252 7.9
2004-06-14 15:21:31 51°17.793 3°1.075 243.8 14.6 240 8.3
2004-06-14 15:22:32 51°17.685 3°0.719 254.7 14.6 250 8.3
2004-06-14 15:23:32 51°17.576 3°0.373 244 14.6 241 8.3
2004-06-14 15:24:32 51°17.483 3°0.014 248.2 14.8 243 8.4
2004-06-14 15:25:32 51°17.379 2°59.663 252.9 14.6 249 8.4
2004-06-14 15:26:32 51°17.271 2°59.317 239.3 14.5 236 8.4
2004-06-14 15:27:32 51°17.152 2°58.978 247.8 14.8 243 8.5
2004-06-14 15:28:31 51°17.029 2°58.649 243.1 14.7 242 8.6
2004-06-14 15:29:31 51°16.919 2°58.299 241.5 14.8 237 8.4
2004-06-14 15:30:31 51°16.787 2°57.971 245.6 14.7 243 8.4
2004-06-14 15:31:31 51°16.652 2°57.643 237.4 14.8 236 8.6
2004-06-14 15:32:32 51°16.525 2°57.3 237.7 14.7 235 8.6
2004-06-14 15:33:32 51°16.39 2°56.974 243.2 14.7 239 8.6
2004-06-14 15:34:32 51°16.233 2°56.681 224.3 14.5 223 8.3
2004-06-14 15:35:32 51°16.073 2°56.394 236.2 14.4 233 8
2004-06-14 15:36:32 51°15.909 2°56.119 219.7 14.3 218 7.9
2004-06-14 15:37:32 51°15.753 2°55.839 239 14.2 237 7.5
2004-06-14 15:38:32 51°15.617 2°55.534 230.5 14.1 226 -999
2004-06-14 15:39:32 51°15.437 2°55.3 219.3 13.9 218 7.2
2004-06-14 15:40:32 51°15.249 2°55.111 197.4 12.8 194 7
2004-06-14 15:41:32 51°15.033 2°55.021 196.8 13.7 197 5.7
2004-06-14 15:42:32 51°14.81 2°54.965 186.1 13.7 186 8.2
2004-06-14 15:43:32 51°14.59 2°54.978 174.4 13.1 175 8.4
2004-06-14 15:44:32 51°14.388 2°55.076 148.8 12.6 143 10